createdAt,value
2022-10-13T00:03:08.787Z,64.20
2022-10-13T00:08:13.062Z,64.24
2022-10-13T00:13:16.144Z,64.17
2022-10-13T00:18:18.454Z,64.20
2022-10-13T00:23:20.728Z,64.48
2022-10-13T00:28:23.082Z,64.34
2022-10-13T00:33:26.000Z,64.40
2022-10-13T00:38:28.341Z,64.60
2022-10-13T00:43:51.219Z,64.89
2022-10-13T00:48:55.244Z,64.93
2022-10-13T00:53:58.428Z,64.99
2022-10-13T00:59:01.672Z,64.88
2022-10-13T01:04:04.035Z,65.02
2022-10-13T01:09:06.217Z,65.11
2022-10-13T01:14:32.874Z,65.02
2022-10-13T01:20:02.903Z,64.87
2022-10-13T01:25:40.126Z,65.01
2022-10-13T01:30:52.780Z,65.17
2022-10-13T01:36:23.959Z,64.89
2022-10-13T01:41:40.684Z,64.81
2022-10-13T01:46:45.541Z,64.68
2022-10-13T01:51:50.311Z,65.11
2022-10-13T01:56:57.161Z,65.42
2022-10-13T02:02:33.137Z,66.21
2022-10-13T02:07:52.486Z,66.07
2022-10-13T02:13:01.735Z,65.97
2022-10-13T02:18:11.221Z,66.15
2022-10-13T02:23:17.076Z,66.58
2022-10-13T02:28:20.011Z,66.48
2022-10-13T02:33:22.520Z,66.11
2022-10-13T02:38:24.911Z,66.21
2022-10-13T02:43:27.062Z,66.08
2022-10-13T02:48:29.373Z,66.10
2022-10-13T02:53:31.705Z,66.33
2022-10-13T02:58:34.709Z,66.29
2022-10-13T03:03:37.600Z,66.71
2022-10-13T03:08:39.989Z,66.67
2022-10-13T03:13:42.247Z,66.91
2022-10-13T03:18:44.419Z,66.85
2022-10-13T03:23:46.736Z,66.93
2022-10-13T03:28:52.803Z,67.29
2022-10-13T03:33:55.344Z,67.44
2022-10-13T03:38:57.671Z,67.73
2022-10-13T03:43:59.861Z,67.63
2022-10-13T03:49:02.242Z,67.91
2022-10-13T03:54:04.781Z,68.00
2022-10-13T03:59:07.729Z,68.36
2022-10-13T04:04:13.116Z,68.19
2022-10-13T04:09:15.667Z,68.41
2022-10-13T04:14:17.921Z,68.19
2022-10-13T04:19:20.180Z,68.29
2022-10-13T04:24:22.360Z,68.41
2022-10-13T04:29:24.665Z,68.13
2022-10-13T04:34:26.943Z,67.88
2022-10-13T04:39:29.141Z,68.13
2022-10-13T04:44:31.535Z,67.98
2022-10-13T04:49:34.257Z,67.79
2022-10-13T04:54:36.914Z,67.92
2022-10-13T04:59:39.168Z,67.86
2022-10-13T05:04:41.651Z,67.59
2022-10-13T05:09:44.026Z,67.68
2022-10-13T05:14:46.238Z,67.61
2022-10-13T05:19:49.738Z,67.62
2022-10-13T05:24:51.990Z,67.28
2022-10-13T05:29:54.228Z,67.08
2022-10-13T05:34:56.420Z,67.21
2022-10-13T05:39:58.707Z,67.38
2022-10-13T05:45:01.051Z,67.41
2022-10-13T05:50:03.596Z,67.37
2022-10-13T05:55:09.680Z,67.88
2022-10-13T06:00:15.355Z,68.10
2022-10-13T06:05:20.116Z,67.17
2022-10-13T06:10:23.835Z,66.89
2022-10-13T06:15:28.330Z,66.77
2022-10-13T06:20:30.723Z,66.55
2022-10-13T06:25:33.222Z,66.50
2022-10-13T06:30:35.416Z,66.33
2022-10-13T06:35:37.756Z,66.43
2022-10-13T06:40:40.053Z,66.36
2022-10-13T06:45:42.229Z,65.68
2022-10-13T06:50:44.539Z,65.49
2022-10-13T06:55:52.227Z,65.63
2022-10-13T07:00:54.845Z,65.47
2022-10-13T07:06:05.491Z,65.02
2022-10-13T07:11:16.273Z,64.90
2022-10-13T07:16:19.067Z,63.95
2022-10-13T07:21:21.865Z,63.28
2022-10-13T07:26:24.520Z,62.74
2022-10-13T07:31:27.218Z,62.23
2022-10-13T07:36:29.755Z,61.87
2022-10-13T07:41:32.087Z,61.64
2022-10-13T07:46:34.371Z,61.10
2022-10-13T07:51:36.854Z,60.75
2022-10-13T07:56:39.097Z,60.01
2022-10-13T08:01:41.454Z,59.29
2022-10-13T08:06:43.916Z,58.86
2022-10-13T08:11:46.141Z,58.23
2022-10-13T08:16:51.413Z,57.21
2022-10-13T08:21:58.582Z,56.63
2022-10-13T08:27:01.860Z,56.25
2022-10-13T08:32:04.104Z,54.75
2022-10-13T08:37:06.619Z,52.88
2022-10-13T08:42:18.771Z,53.21
2022-10-13T08:47:30.042Z,51.91
2022-10-13T08:52:53.635Z,51.26
2022-10-13T08:57:56.027Z,51.21
2022-10-13T09:03:20.371Z,50.49
2022-10-13T09:08:25.094Z,49.32
2022-10-13T09:13:27.658Z,48.71
2022-10-13T09:18:32.364Z,48.41
2022-10-13T09:23:38.204Z,47.91
2022-10-13T09:28:43.472Z,47.92
2022-10-13T09:33:46.958Z,46.99
2022-10-13T09:39:13.072Z,47.28
2022-10-13T09:44:30.434Z,45.47
2022-10-13T09:49:41.970Z,45.58
2022-10-13T09:54:46.994Z,44.36
2022-10-13T09:59:59.396Z,43.87
2022-10-13T10:05:15.038Z,43.79
2022-10-13T10:10:32.205Z,43.57
2022-10-13T10:15:56.326Z,42.35
2022-10-13T10:21:09.262Z,41.76
2022-10-13T10:26:31.629Z,41.69
2022-10-13T10:31:56.485Z,40.58
2022-10-13T10:37:49.481Z,40.97
2022-10-13T10:43:19.795Z,40.85
2022-10-13T10:48:25.713Z,39.10
2022-10-13T10:54:09.029Z,39.55
2022-10-13T10:59:41.995Z,40.01
2022-10-13T11:04:45.357Z,39.60
2022-10-13T11:09:53.359Z,39.28
2022-10-13T11:14:55.553Z,37.62
2022-10-13T11:19:58.686Z,37.39
2022-10-13T11:25:30.050Z,37.68
2022-10-13T11:30:45.286Z,37.52
2022-10-13T11:35:47.575Z,37.09
2022-10-13T11:41:19.148Z,37.08
2022-10-13T11:46:30.230Z,37.00
2022-10-13T11:52:18.322Z,37.11
2022-10-13T11:57:28.222Z,37.29
2022-10-13T12:02:30.830Z,37.71
2022-10-13T12:07:37.198Z,37.84
2022-10-13T12:12:47.546Z,37.25
2022-10-13T12:17:49.950Z,37.61
2022-10-13T12:22:53.476Z,36.80
2022-10-13T12:27:59.191Z,37.21
2022-10-13T12:33:01.681Z,37.25
2022-10-13T12:38:12.248Z,35.92
2022-10-13T12:43:20.266Z,35.75
2022-10-13T12:48:37.195Z,36.46
2022-10-13T12:53:40.014Z,35.97
2022-10-13T12:58:44.300Z,35.85
2022-10-13T13:03:54.091Z,36.00
2022-10-13T13:09:21.140Z,35.88
2022-10-13T13:14:25.824Z,36.28
2022-10-13T13:20:10.525Z,36.84
2022-10-13T13:25:14.361Z,36.56
2022-10-13T13:30:20.314Z,36.43
2022-10-13T13:35:22.601Z,36.09
2022-10-13T13:40:27.294Z,36.17
2022-10-13T13:45:29.521Z,36.61
2022-10-13T13:50:36.471Z,37.44
2022-10-13T13:55:38.782Z,38.34
2022-10-13T14:00:41.131Z,38.46
2022-10-13T14:05:43.313Z,39.13
2022-10-13T14:10:45.580Z,39.58
2022-10-13T14:16:00.368Z,40.12
2022-10-13T14:21:07.665Z,40.01
2022-10-13T14:26:10.019Z,40.51
2022-10-13T14:31:12.734Z,40.65
2022-10-13T14:36:16.716Z,40.92
2022-10-13T14:41:19.507Z,40.96
2022-10-13T14:46:22.910Z,41.23
2022-10-13T14:51:25.887Z,41.19
2022-10-13T14:56:30.671Z,41.71
2022-10-13T15:01:33.895Z,42.00
2022-10-13T15:06:39.607Z,42.30
2022-10-13T15:11:42.142Z,42.78
2022-10-13T15:16:44.455Z,42.98
2022-10-13T15:21:46.926Z,43.41
2022-10-13T15:26:49.322Z,43.48
2022-10-13T15:31:51.528Z,43.41
2022-10-13T15:36:53.917Z,43.47
2022-10-13T15:41:56.687Z,43.52
2022-10-13T15:47:07.995Z,43.66
2022-10-13T15:52:11.024Z,44.36
2022-10-13T15:57:13.526Z,44.39
2022-10-13T16:02:16.094Z,44.59
2022-10-13T16:07:20.957Z,44.64
2022-10-13T16:12:24.844Z,44.55
2022-10-13T16:17:27.234Z,44.51
2022-10-13T16:22:29.495Z,44.54
2022-10-13T16:27:32.818Z,44.36
2022-10-13T16:32:39.893Z,44.29
2022-10-13T16:37:42.547Z,44.18
2022-10-13T16:42:45.898Z,44.41
2022-10-13T16:47:51.951Z,44.59
2022-10-13T16:52:54.301Z,44.98
2022-10-13T16:57:56.599Z,45.27
2022-10-13T17:02:58.873Z,45.94
2022-10-13T17:08:01.088Z,46.18
2022-10-13T17:13:03.896Z,46.39
2022-10-13T17:18:06.195Z,46.20
2022-10-13T17:23:08.593Z,46.18
2022-10-13T17:28:10.809Z,46.01
2022-10-13T17:33:13.276Z,45.74
2022-10-13T17:38:17.557Z,45.74
2022-10-13T17:43:19.850Z,45.67
2022-10-13T17:48:23.189Z,45.85
2022-10-13T17:53:27.873Z,45.75
2022-10-13T17:58:31.038Z,45.87
2022-10-13T18:03:34.465Z,45.79
2022-10-13T18:08:36.760Z,46.00
2022-10-13T18:13:39.866Z,45.92
2022-10-13T18:18:44.490Z,46.29
2022-10-13T18:23:46.956Z,46.59
2022-10-13T18:28:50.797Z,46.50
2022-10-13T18:33:55.685Z,46.68
2022-10-13T18:39:03.826Z,46.72
2022-10-13T18:49:33.471Z,46.87
2022-10-13T18:54:35.655Z,46.97
2022-10-13T18:59:39.267Z,47.16
2022-10-13T19:04:41.716Z,47.55
2022-10-13T19:09:44.130Z,47.76
2022-10-13T19:14:46.514Z,47.98
2022-10-13T19:19:49.115Z,48.47
2022-10-13T19:24:51.539Z,48.75
2022-10-13T19:29:53.766Z,49.06
2022-10-13T19:34:58.241Z,49.13
2022-10-13T19:40:00.523Z,49.25
2022-10-13T19:45:06.247Z,49.16
2022-10-13T19:50:08.697Z,49.21
2022-10-13T19:55:10.947Z,49.17
2022-10-13T20:00:13.964Z,49.20
2022-10-13T20:05:16.354Z,49.48
2022-10-13T20:10:18.931Z,49.41
2022-10-13T20:15:21.506Z,49.76
2022-10-13T20:20:24.003Z,50.28
2022-10-13T20:25:26.438Z,50.58
2022-10-13T20:30:28.878Z,50.87
2022-10-13T20:35:31.264Z,51.12
2022-10-13T20:40:33.674Z,51.01
2022-10-13T20:45:35.951Z,50.77
2022-10-13T20:50:38.505Z,50.89
2022-10-13T20:55:41.961Z,50.60
2022-10-13T21:00:44.542Z,50.86
2022-10-13T21:05:48.020Z,50.74
2022-10-13T21:10:51.539Z,50.52
2022-10-13T21:15:53.935Z,50.72
2022-10-13T21:20:56.608Z,50.82
2022-10-13T21:26:02.390Z,51.16
2022-10-13T21:31:07.323Z,51.62
2022-10-13T21:36:14.022Z,52.03
2022-10-13T21:41:16.705Z,52.46
2022-10-13T21:46:24.837Z,52.81
2022-10-13T21:51:30.061Z,53.15
2022-10-13T21:56:33.425Z,53.60
2022-10-13T22:01:35.916Z,53.94
2022-10-13T22:06:38.176Z,54.23
2022-10-13T22:11:41.811Z,54.68
2022-10-13T22:16:49.449Z,55.13
2022-10-13T22:21:51.851Z,55.20
2022-10-13T22:27:25.330Z,55.47
2022-10-13T22:32:27.653Z,56.04
2022-10-13T22:37:30.293Z,56.61
2022-10-13T22:42:33.080Z,56.70
2022-10-13T22:47:35.701Z,56.77
2022-10-13T22:52:37.945Z,56.85
2022-10-13T22:57:58.705Z,57.21
2022-10-13T23:03:00.987Z,57.87
2022-10-13T23:08:03.354Z,58.35
2022-10-13T23:13:05.971Z,58.95
2022-10-13T23:18:08.167Z,59.82
2022-10-13T23:23:10.897Z,60.54
2022-10-13T23:28:13.224Z,61.83
2022-10-13T23:33:15.497Z,62.24
2022-10-13T23:38:17.879Z,63.27
2022-10-13T23:43:20.974Z,63.83
2022-10-13T23:48:23.513Z,63.80
2022-10-13T23:53:25.717Z,65.40
2022-10-13T23:58:28.046Z,65.27
